sensor_id;sensor_type;location;lat;lon;timestamp;P1;durP1;ratioP1;P2;durP2;ratioP2
70866;SDS011;58487;53.474;49.470;2022-09-09T00:06:30;5.97;;;2.50;;
70866;SDS011;58487;53.474;49.470;2022-09-09T00:09:13;4.80;;;2.10;;
70866;SDS011;58487;53.474;49.470;2022-09-09T00:11:43;5.10;;;2.65;;
70866;SDS011;58487;53.474;49.470;2022-09-09T00:14:16;4.75;;;2.40;;
70866;SDS011;58487;53.474;49.470;2022-09-09T00:17:04;5.20;;;2.33;;
70866;SDS011;58487;53.474;49.470;2022-09-09T00:20:04;5.97;;;2.40;;
70866;SDS011;58487;53.474;49.470;2022-09-09T00:22:38;4.80;;;2.40;;
70866;SDS011;58487;53.474;49.470;2022-09-09T00:25:11;5.18;;;2.45;;
70866;SDS011;58487;53.474;49.470;2022-09-09T00:27:49;5.55;;;2.58;;
70866;SDS011;58487;53.474;49.470;2022-09-09T00:30:20;5.55;;;2.30;;
70866;SDS011;58487;53.474;49.470;2022-09-09T00:32:50;4.90;;;2.30;;
70866;SDS011;58487;53.474;49.470;2022-09-09T00:41:02;5.45;;;1.98;;
70866;SDS011;58487;53.474;49.470;2022-09-09T00:43:31;4.90;;;2.22;;
70866;SDS011;58487;53.474;49.470;2022-09-09T00:46:05;4.73;;;2.40;;
70866;SDS011;58487;53.474;49.470;2022-09-09T00:54:22;4.60;;;2.10;;
70866;SDS011;58487;53.474;49.470;2022-09-09T00:57:06;5.55;;;2.35;;
70866;SDS011;58487;53.474;49.470;2022-09-09T00:59:52;5.30;;;2.00;;
70866;SDS011;58487;53.474;49.470;2022-09-09T01:02:44;5.05;;;2.20;;
70866;SDS011;58487;53.474;49.470;2022-09-09T01:05:29;6.78;;;2.30;;
70866;SDS011;58487;53.474;49.470;2022-09-09T01:08:01;4.07;;;1.75;;
70866;SDS011;58487;53.474;49.470;2022-09-09T01:10:44;5.13;;;2.38;;
70866;SDS011;58487;53.474;49.470;2022-09-09T01:13:49;4.00;;;1.87;;
70866;SDS011;58487;53.474;49.470;2022-09-09T01:16:12;4.53;;;2.10;;
70866;SDS011;58487;53.474;49.470;2022-09-09T01:18:40;5.07;;;2.45;;
70866;SDS011;58487;53.474;49.470;2022-09-09T01:26:42;4.23;;;1.93;;
70866;SDS011;58487;53.474;49.470;2022-09-09T01:29:11;5.32;;;2.20;;
70866;SDS011;58487;53.474;49.470;2022-09-09T01:31:40;4.57;;;2.10;;
70866;SDS011;58487;53.474;49.470;2022-09-09T01:34:09;4.90;;;2.20;;
70866;SDS011;58487;53.474;49.470;2022-09-09T01:39:38;4.63;;;2.00;;
70866;SDS011;58487;53.474;49.470;2022-09-09T01:42:09;6.90;;;2.17;;
70866;SDS011;58487;53.474;49.470;2022-09-09T01:44:37;4.35;;;2.03;;
70866;SDS011;58487;53.474;49.470;2022-09-09T01:47:03;6.07;;;2.40;;
70866;SDS011;58487;53.474;49.470;2022-09-09T01:49:30;5.93;;;2.25;;
70866;SDS011;58487;53.474;49.470;2022-09-09T01:51:58;5.20;;;2.73;;
70866;SDS011;58487;53.474;49.470;2022-09-09T01:54:26;4.78;;;2.38;;
70866;SDS011;58487;53.474;49.470;2022-09-09T02:02:39;6.35;;;2.60;;
70866;SDS011;58487;53.474;49.470;2022-09-09T02:07:47;6.03;;;2.90;;
70866;SDS011;58487;53.474;49.470;2022-09-09T02:10:22;7.53;;;3.10;;
70866;SDS011;58487;53.474;49.470;2022-09-09T02:12:58;6.07;;;3.00;;
70866;SDS011;58487;53.474;49.470;2022-09-09T02:15:32;6.00;;;3.10;;
70866;SDS011;58487;53.474;49.470;2022-09-09T02:18:19;6.03;;;3.07;;
70866;SDS011;58487;53.474;49.470;2022-09-09T02:20:49;7.38;;;2.88;;
70866;SDS011;58487;53.474;49.470;2022-09-09T02:23:17;6.97;;;3.08;;
70866;SDS011;58487;53.474;49.470;2022-09-09T02:25:45;5.50;;;3.00;;
70866;SDS011;58487;53.474;49.470;2022-09-09T02:28:12;6.32;;;2.90;;
70866;SDS011;58487;53.474;49.470;2022-09-09T02:30:39;6.40;;;3.10;;
70866;SDS011;58487;53.474;49.470;2022-09-09T02:33:09;7.45;;;3.30;;
70866;SDS011;58487;53.474;49.470;2022-09-09T02:35:38;5.13;;;2.88;;
70866;SDS011;58487;53.474;49.470;2022-09-09T02:38:07;7.75;;;3.20;;
70866;SDS011;58487;53.474;49.470;2022-09-09T02:40:36;5.78;;;3.13;;
70866;SDS011;58487;53.474;49.470;2022-09-09T02:43:02;6.20;;;3.27;;
70866;SDS011;58487;53.474;49.470;2022-09-09T02:45:33;5.85;;;3.20;;
70866;SDS011;58487;53.474;49.470;2022-09-09T02:48:27;8.15;;;3.40;;
70866;SDS011;58487;53.474;49.470;2022-09-09T02:51:18;6.28;;;3.20;;
70866;SDS011;58487;53.474;49.470;2022-09-09T02:54:17;7.40;;;3.00;;
70866;SDS011;58487;53.474;49.470;2022-09-09T02:56:57;7.57;;;3.40;;
70866;SDS011;58487;53.474;49.470;2022-09-09T02:59:31;5.30;;;2.75;;
70866;SDS011;58487;53.474;49.470;2022-09-09T03:01:58;6.40;;;3.15;;
70866;SDS011;58487;53.474;49.470;2022-09-09T03:04:24;6.50;;;3.20;;
70866;SDS011;58487;53.474;49.470;2022-09-09T03:06:51;5.75;;;2.97;;
70866;SDS011;58487;53.474;49.470;2022-09-09T03:09:17;5.10;;;2.60;;
70866;SDS011;58487;53.474;49.470;2022-09-09T03:11:42;6.22;;;2.80;;
70866;SDS011;58487;53.474;49.470;2022-09-09T03:14:08;8.50;;;3.08;;
70866;SDS011;58487;53.474;49.470;2022-09-09T03:16:36;5.60;;;2.70;;
70866;SDS011;58487;53.474;49.470;2022-09-09T03:19:02;5.93;;;2.90;;
70866;SDS011;58487;53.474;49.470;2022-09-09T03:21:29;6.40;;;2.90;;
70866;SDS011;58487;53.474;49.470;2022-09-09T03:23:55;5.70;;;2.88;;
70866;SDS011;58487;53.474;49.470;2022-09-09T03:26:22;6.78;;;3.30;;
70866;SDS011;58487;53.474;49.470;2022-09-09T03:28:48;6.57;;;3.17;;
70866;SDS011;58487;53.474;49.470;2022-09-09T03:31:17;6.70;;;3.22;;
70866;SDS011;58487;53.474;49.470;2022-09-09T03:33:44;7.63;;;3.13;;
70866;SDS011;58487;53.474;49.470;2022-09-09T03:36:11;7.00;;;3.50;;
70866;SDS011;58487;53.474;49.470;2022-09-09T03:38:37;6.90;;;3.20;;
70866;SDS011;58487;53.474;49.470;2022-09-09T03:41:03;6.90;;;3.40;;
70866;SDS011;58487;53.474;49.470;2022-09-09T03:43:33;6.75;;;3.60;;
70866;SDS011;58487;53.474;49.470;2022-09-09T03:45:59;6.67;;;3.77;;
70866;SDS011;58487;53.474;49.470;2022-09-09T03:48:26;6.78;;;3.35;;
70866;SDS011;58487;53.474;49.470;2022-09-09T03:50:53;8.63;;;3.22;;
70866;SDS011;58487;53.474;49.470;2022-09-09T03:53:26;7.00;;;3.38;;
70866;SDS011;58487;53.474;49.470;2022-09-09T03:55:53;8.32;;;3.70;;
70866;SDS011;58487;53.474;49.470;2022-09-09T03:58:21;6.87;;;3.20;;
70866;SDS011;58487;53.474;49.470;2022-09-09T04:00:59;8.82;;;4.63;;
70866;SDS011;58487;53.474;49.470;2022-09-09T04:03:30;5.93;;;3.28;;
70866;SDS011;58487;53.474;49.470;2022-09-09T04:05:58;6.55;;;3.40;;
70866;SDS011;58487;53.474;49.470;2022-09-09T04:08:26;5.60;;;3.03;;
70866;SDS011;58487;53.474;49.470;2022-09-09T04:10:52;7.73;;;3.73;;
70866;SDS011;58487;53.474;49.470;2022-09-09T04:13:22;7.05;;;4.00;;
70866;SDS011;58487;53.474;49.470;2022-09-09T04:15:52;7.90;;;4.20;;
70866;SDS011;58487;53.474;49.470;2022-09-09T04:18:19;9.32;;;4.30;;
70866;SDS011;58487;53.474;49.470;2022-09-09T04:20:48;8.10;;;3.83;;
70866;SDS011;58487;53.474;49.470;2022-09-09T04:23:16;7.63;;;3.90;;
70866;SDS011;58487;53.474;49.470;2022-09-09T04:25:45;35.97;;;18.27;;
70866;SDS011;58487;53.474;49.470;2022-09-09T04:28:12;14.38;;;7.35;;
70866;SDS011;58487;53.474;49.470;2022-09-09T04:30:40;8.23;;;4.07;;
70866;SDS011;58487;53.474;49.470;2022-09-09T04:33:07;10.52;;;4.28;;
70866;SDS011;58487;53.474;49.470;2022-09-09T04:35:33;8.73;;;4.37;;
70866;SDS011;58487;53.474;49.470;2022-09-09T04:37:59;10.27;;;3.97;;
70866;SDS011;58487;53.474;49.470;2022-09-09T04:40:26;7.97;;;4.05;;
70866;SDS011;58487;53.474;49.470;2022-09-09T04:42:52;6.72;;;3.65;;
70866;SDS011;58487;53.474;49.470;2022-09-09T04:45:18;10.05;;;4.07;;
70866;SDS011;58487;53.474;49.470;2022-09-09T04:47:44;9.67;;;4.10;;
70866;SDS011;58487;53.474;49.470;2022-09-09T04:50:10;10.10;;;4.00;;
70866;SDS011;58487;53.474;49.470;2022-09-09T04:52:37;7.63;;;4.10;;
70866;SDS011;58487;53.474;49.470;2022-09-09T04:55:03;6.55;;;3.42;;
70866;SDS011;58487;53.474;49.470;2022-09-09T04:57:29;7.35;;;3.78;;
70866;SDS011;58487;53.474;49.470;2022-09-09T04:59:58;6.87;;;3.80;;
70866;SDS011;58487;53.474;49.470;2022-09-09T05:02:26;7.47;;;3.72;;
70866;SDS011;58487;53.474;49.470;2022-09-09T05:04:52;6.25;;;3.30;;
70866;SDS011;58487;53.474;49.470;2022-09-09T05:07:18;6.65;;;3.20;;
70866;SDS011;58487;53.474;49.470;2022-09-09T05:09:44;6.30;;;3.45;;
70866;SDS011;58487;53.474;49.470;2022-09-09T05:12:10;8.20;;;3.57;;
70866;SDS011;58487;53.474;49.470;2022-09-09T05:14:36;7.50;;;3.95;;
70866;SDS011;58487;53.474;49.470;2022-09-09T05:17:03;8.65;;;3.45;;
70866;SDS011;58487;53.474;49.470;2022-09-09T05:19:29;6.72;;;3.40;;
70866;SDS011;58487;53.474;49.470;2022-09-09T05:21:55;7.78;;;4.28;;
70866;SDS011;58487;53.474;49.470;2022-09-09T05:24:22;8.27;;;3.47;;
70866;SDS011;58487;53.474;49.470;2022-09-09T05:26:51;7.45;;;3.90;;
70866;SDS011;58487;53.474;49.470;2022-09-09T05:29:17;6.15;;;3.40;;
70866;SDS011;58487;53.474;49.470;2022-09-09T05:31:45;6.20;;;2.92;;
70866;SDS011;58487;53.474;49.470;2022-09-09T05:34:12;7.90;;;3.30;;
70866;SDS011;58487;53.474;49.470;2022-09-09T05:36:38;7.30;;;3.07;;
70866;SDS011;58487;53.474;49.470;2022-09-09T05:39:04;5.30;;;2.92;;
70866;SDS011;58487;53.474;49.470;2022-09-09T05:41:30;5.47;;;2.60;;
70866;SDS011;58487;53.474;49.470;2022-09-09T05:43:57;6.20;;;2.80;;
70866;SDS011;58487;53.474;49.470;2022-09-09T05:46:24;5.93;;;2.83;;
70866;SDS011;58487;53.474;49.470;2022-09-09T05:48:50;6.57;;;3.00;;
70866;SDS011;58487;53.474;49.470;2022-09-09T05:51:21;6.00;;;2.90;;
70866;SDS011;58487;53.474;49.470;2022-09-09T05:53:49;7.55;;;2.95;;
70866;SDS011;58487;53.474;49.470;2022-09-09T05:56:21;5.60;;;3.00;;
70866;SDS011;58487;53.474;49.470;2022-09-09T05:58:50;5.35;;;2.83;;
70866;SDS011;58487;53.474;49.470;2022-09-09T06:01:20;4.97;;;2.87;;
70866;SDS011;58487;53.474;49.470;2022-09-09T06:03:51;7.10;;;3.00;;
70866;SDS011;58487;53.474;49.470;2022-09-09T06:06:19;5.57;;;3.00;;
70866;SDS011;58487;53.474;49.470;2022-09-09T06:08:47;5.82;;;2.53;;
70866;SDS011;58487;53.474;49.470;2022-09-09T06:11:20;5.45;;;2.55;;
70866;SDS011;58487;53.474;49.470;2022-09-09T06:13:48;6.03;;;2.50;;
70866;SDS011;58487;53.474;49.470;2022-09-09T06:16:17;4.88;;;2.40;;
70866;SDS011;58487;53.474;49.470;2022-09-09T06:18:45;4.03;;;2.05;;
70866;SDS011;58487;53.474;49.470;2022-09-09T06:21:13;5.63;;;2.20;;
70866;SDS011;58487;53.474;49.470;2022-09-09T06:23:42;5.95;;;2.42;;
70866;SDS011;58487;53.474;49.470;2022-09-09T06:26:14;4.63;;;2.27;;
70866;SDS011;58487;53.474;49.470;2022-09-09T06:28:45;5.05;;;2.40;;
70866;SDS011;58487;53.474;49.470;2022-09-09T06:31:13;5.38;;;2.22;;
70866;SDS011;58487;53.474;49.470;2022-09-09T06:33:42;4.65;;;2.40;;
70866;SDS011;58487;53.474;49.470;2022-09-09T06:36:11;6.65;;;2.45;;
70866;SDS011;58487;53.474;49.470;2022-09-09T06:38:39;4.10;;;1.90;;
70866;SDS011;58487;53.474;49.470;2022-09-09T06:41:05;4.57;;;2.10;;
70866;SDS011;58487;53.474;49.470;2022-09-09T06:43:31;4.97;;;2.10;;
70866;SDS011;58487;53.474;49.470;2022-09-09T06:48:29;5.50;;;1.95;;
70866;SDS011;58487;53.474;49.470;2022-09-09T06:53:32;3.90;;;1.80;;
70866;SDS011;58487;53.474;49.470;2022-09-09T06:56:21;4.45;;;1.80;;
70866;SDS011;58487;53.474;49.470;2022-09-09T06:58:50;3.63;;;1.52;;
70866;SDS011;58487;53.474;49.470;2022-09-09T07:01:24;4.30;;;1.60;;
70866;SDS011;58487;53.474;49.470;2022-09-09T07:03:53;5.17;;;1.87;;
70866;SDS011;58487;53.474;49.470;2022-09-09T07:06:21;6.90;;;1.85;;
70866;SDS011;58487;53.474;49.470;2022-09-09T07:11:31;4.25;;;1.70;;
70866;SDS011;58487;53.474;49.470;2022-09-09T07:14:00;3.92;;;1.75;;
70866;SDS011;58487;53.474;49.470;2022-09-09T07:16:26;4.83;;;1.67;;
70866;SDS011;58487;53.474;49.470;2022-09-09T07:18:53;4.15;;;1.60;;
70866;SDS011;58487;53.474;49.470;2022-09-09T07:21:23;5.05;;;1.58;;
70866;SDS011;58487;53.474;49.470;2022-09-09T07:23:51;5.18;;;1.70;;
70866;SDS011;58487;53.474;49.470;2022-09-09T07:26:19;4.95;;;1.77;;
70866;SDS011;58487;53.474;49.470;2022-09-09T07:28:47;3.90;;;1.70;;
70866;SDS011;58487;53.474;49.470;2022-09-09T07:31:14;4.50;;;2.00;;
70866;SDS011;58487;53.474;49.470;2022-09-09T07:33:42;3.88;;;1.40;;
70866;SDS011;58487;53.474;49.470;2022-09-09T07:36:14;5.65;;;1.70;;
70866;SDS011;58487;53.474;49.470;2022-09-09T07:38:48;3.40;;;1.40;;
70866;SDS011;58487;53.474;49.470;2022-09-09T07:41:26;3.60;;;1.60;;
70866;SDS011;58487;53.474;49.470;2022-09-09T07:43:55;3.72;;;1.70;;
70866;SDS011;58487;53.474;49.470;2022-09-09T07:46:22;3.88;;;1.60;;
70866;SDS011;58487;53.474;49.470;2022-09-09T07:48:51;4.10;;;2.00;;
70866;SDS011;58487;53.474;49.470;2022-09-09T07:51:20;3.70;;;1.70;;
70866;SDS011;58487;53.474;49.470;2022-09-09T07:53:56;4.00;;;1.73;;
70866;SDS011;58487;53.474;49.470;2022-09-09T07:56:24;3.75;;;1.90;;
70866;SDS011;58487;53.474;49.470;2022-09-09T07:58:53;4.03;;;1.67;;
70866;SDS011;58487;53.474;49.470;2022-09-09T08:03:52;6.38;;;2.10;;
70866;SDS011;58487;53.474;49.470;2022-09-09T08:06:27;4.47;;;2.10;;
70866;SDS011;58487;53.474;49.470;2022-09-09T08:09:06;4.47;;;1.90;;
70866;SDS011;58487;53.474;49.470;2022-09-09T08:11:34;3.55;;;1.58;;
70866;SDS011;58487;53.474;49.470;2022-09-09T08:14:01;4.00;;;1.90;;
70866;SDS011;58487;53.474;49.470;2022-09-09T08:16:29;5.32;;;1.85;;
70866;SDS011;58487;53.474;49.470;2022-09-09T08:18:57;4.50;;;2.10;;
70866;SDS011;58487;53.474;49.470;2022-09-09T08:21:25;7.13;;;1.95;;
70866;SDS011;58487;53.474;49.470;2022-09-09T08:23:53;5.82;;;2.00;;
70866;SDS011;58487;53.474;49.470;2022-09-09T08:26:21;4.47;;;1.98;;
70866;SDS011;58487;53.474;49.470;2022-09-09T08:28:50;4.97;;;1.95;;
70866;SDS011;58487;53.474;49.470;2022-09-09T08:31:18;5.00;;;2.10;;
70866;SDS011;58487;53.474;49.470;2022-09-09T08:33:49;5.00;;;1.90;;
70866;SDS011;58487;53.474;49.470;2022-09-09T08:36:19;3.33;;;1.40;;
70866;SDS011;58487;53.474;49.470;2022-09-09T08:38:47;3.25;;;1.35;;
70866;SDS011;58487;53.474;49.470;2022-09-09T08:41:22;2.90;;;1.10;;
70866;SDS011;58487;53.474;49.470;2022-09-09T08:49:59;4.88;;;1.40;;
70866;SDS011;58487;53.474;49.470;2022-09-09T08:57:49;3.20;;;1.30;;
70866;SDS011;58487;53.474;49.470;2022-09-09T09:00:20;3.92;;;1.50;;
70866;SDS011;58487;53.474;49.470;2022-09-09T09:08:12;4.57;;;1.70;;
70866;SDS011;58487;53.474;49.470;2022-09-09T09:10:51;3.70;;;1.70;;
70866;SDS011;58487;53.474;49.470;2022-09-09T09:16:19;3.97;;;1.50;;
70866;SDS011;58487;53.474;49.470;2022-09-09T09:18:46;3.53;;;1.58;;
70866;SDS011;58487;53.474;49.470;2022-09-09T09:21:58;3.30;;;1.40;;
70866;SDS011;58487;53.474;49.470;2022-09-09T09:24:04;3.40;;;1.60;;
70866;SDS011;58487;53.474;49.470;2022-09-09T09:26:40;3.50;;;1.77;;
70866;SDS011;58487;53.474;49.470;2022-09-09T09:29:10;4.03;;;1.63;;
70866;SDS011;58487;53.474;49.470;2022-09-09T09:31:38;3.80;;;1.50;;
70866;SDS011;58487;53.474;49.470;2022-09-09T09:34:04;3.50;;;1.55;;
70866;SDS011;58487;53.474;49.470;2022-09-09T09:36:34;3.03;;;1.20;;
70866;SDS011;58487;53.474;49.470;2022-09-09T09:39:06;4.38;;;1.50;;
70866;SDS011;58487;53.474;49.470;2022-09-09T09:41:38;5.05;;;1.50;;
70866;SDS011;58487;53.474;49.470;2022-09-09T09:44:06;3.40;;;1.70;;
70866;SDS011;58487;53.474;49.470;2022-09-09T09:46:50;3.80;;;1.55;;
70866;SDS011;58487;53.474;49.470;2022-09-09T09:49:16;4.73;;;1.83;;
70866;SDS011;58487;53.474;49.470;2022-09-09T09:51:42;3.50;;;1.40;;
70866;SDS011;58487;53.474;49.470;2022-09-09T09:56:48;3.30;;;1.40;;
70866;SDS011;58487;53.474;49.470;2022-09-09T09:59:34;3.25;;;1.30;;
70866;SDS011;58487;53.474;49.470;2022-09-09T10:02:17;3.73;;;1.30;;
70866;SDS011;58487;53.474;49.470;2022-09-09T10:04:44;3.10;;;1.27;;
70866;SDS011;58487;53.474;49.470;2022-09-09T10:07:12;5.32;;;1.30;;
70866;SDS011;58487;53.474;49.470;2022-09-09T10:09:42;2.70;;;1.10;;
70866;SDS011;58487;53.474;49.470;2022-09-09T10:12:57;3.40;;;1.20;;
70866;SDS011;58487;53.474;49.470;2022-09-09T10:20:54;4.28;;;1.70;;
70866;SDS011;58487;53.474;49.470;2022-09-09T10:23:35;3.35;;;1.42;;
70866;SDS011;58487;53.474;49.470;2022-09-09T10:26:54;3.67;;;1.70;;
70866;SDS011;58487;53.474;49.470;2022-09-09T10:32:41;4.30;;;1.70;;
70866;SDS011;58487;53.474;49.470;2022-09-09T10:35:46;3.50;;;1.60;;
70866;SDS011;58487;53.474;49.470;2022-09-09T10:38:28;3.80;;;1.80;;
70866;SDS011;58487;53.474;49.470;2022-09-09T10:41:07;3.47;;;1.83;;
70866;SDS011;58487;53.474;49.470;2022-09-09T10:44:01;5.33;;;2.97;;
70866;SDS011;58487;53.474;49.470;2022-09-09T10:52:03;3.95;;;1.45;;
70866;SDS011;58487;53.474;49.470;2022-09-09T10:57:51;3.00;;;1.20;;
70866;SDS011;58487;53.474;49.470;2022-09-09T11:00:20;3.38;;;1.40;;
70866;SDS011;58487;53.474;49.470;2022-09-09T11:02:50;3.50;;;1.33;;
70866;SDS011;58487;53.474;49.470;2022-09-09T11:05:31;5.95;;;2.35;;
70866;SDS011;58487;53.474;49.470;2022-09-09T11:08:16;3.30;;;1.50;;
70866;SDS011;58487;53.474;49.470;2022-09-09T11:10:53;4.33;;;1.70;;
70866;SDS011;58487;53.474;49.470;2022-09-09T11:19:02;3.53;;;1.70;;
70866;SDS011;58487;53.474;49.470;2022-09-09T11:21:37;3.97;;;2.17;;
70866;SDS011;58487;53.474;49.470;2022-09-09T11:24:13;4.70;;;2.53;;
70866;SDS011;58487;53.474;49.470;2022-09-09T11:26:52;4.68;;;2.17;;
70866;SDS011;58487;53.474;49.470;2022-09-09T11:32:16;4.40;;;1.60;;
70866;SDS011;58487;53.474;49.470;2022-09-09T11:40:28;3.60;;;1.55;;
70866;SDS011;58487;53.474;49.470;2022-09-09T11:45:34;3.97;;;2.00;;
70866;SDS011;58487;53.474;49.470;2022-09-09T11:48:03;6.30;;;3.40;;
70866;SDS011;58487;53.474;49.470;2022-09-09T11:50:32;4.00;;;1.70;;
70866;SDS011;58487;53.474;49.470;2022-09-09T11:53:17;3.30;;;1.40;;
70866;SDS011;58487;53.474;49.470;2022-09-09T11:55:48;3.90;;;1.50;;
70866;SDS011;58487;53.474;49.470;2022-09-09T11:58:27;3.08;;;1.20;;
70866;SDS011;58487;53.474;49.470;2022-09-09T12:00:58;3.05;;;1.27;;
70866;SDS011;58487;53.474;49.470;2022-09-09T12:03:41;8.60;;;1.30;;
70866;SDS011;58487;53.474;49.470;2022-09-09T12:06:11;3.20;;;1.30;;
70866;SDS011;58487;53.474;49.470;2022-09-09T12:08:43;5.30;;;1.20;;
70866;SDS011;58487;53.474;49.470;2022-09-09T12:11:23;4.38;;;1.30;;
70866;SDS011;58487;53.474;49.470;2022-09-09T12:13:58;3.20;;;1.20;;
70866;SDS011;58487;53.474;49.470;2022-09-09T12:16:30;3.50;;;1.10;;
70866;SDS011;58487;53.474;49.470;2022-09-09T12:19:14;4.65;;;1.30;;
70866;SDS011;58487;53.474;49.470;2022-09-09T12:24:40;5.70;;;1.30;;
70866;SDS011;58487;53.474;49.470;2022-09-09T12:27:25;3.92;;;1.20;;
70866;SDS011;58487;53.474;49.470;2022-09-09T12:30:12;3.10;;;1.23;;
70866;SDS011;58487;53.474;49.470;2022-09-09T12:32:40;3.65;;;1.20;;
70866;SDS011;58487;53.474;49.470;2022-09-09T12:35:22;3.78;;;1.60;;
70866;SDS011;58487;53.474;49.470;2022-09-09T12:37:55;4.88;;;1.80;;
70866;SDS011;58487;53.474;49.470;2022-09-09T12:40:25;4.22;;;1.70;;
70866;SDS011;58487;53.474;49.470;2022-09-09T12:42:53;2.97;;;1.17;;
70866;SDS011;58487;53.474;49.470;2022-09-09T12:45:24;5.22;;;1.33;;
70866;SDS011;58487;53.474;49.470;2022-09-09T12:47:55;3.60;;;1.40;;
70866;SDS011;58487;53.474;49.470;2022-09-09T12:50:29;3.45;;;1.58;;
70866;SDS011;58487;53.474;49.470;2022-09-09T12:52:58;3.80;;;1.30;;
70866;SDS011;58487;53.474;49.470;2022-09-09T12:55:28;3.07;;;1.20;;
70866;SDS011;58487;53.474;49.470;2022-09-09T12:57:56;3.30;;;1.40;;
70866;SDS011;58487;53.474;49.470;2022-09-09T13:00:25;6.57;;;2.15;;
70866;SDS011;58487;53.474;49.470;2022-09-09T13:02:56;8.10;;;3.33;;
70866;SDS011;58487;53.474;49.470;2022-09-09T13:05:34;3.50;;;1.40;;
70866;SDS011;58487;53.474;49.470;2022-09-09T13:08:05;4.43;;;1.63;;
70866;SDS011;58487;53.474;49.470;2022-09-09T13:10:36;3.88;;;1.33;;
70866;SDS011;58487;53.474;49.470;2022-09-09T13:13:23;4.65;;;1.50;;
70866;SDS011;58487;53.474;49.470;2022-09-09T13:15:53;3.25;;;1.10;;
70866;SDS011;58487;53.474;49.470;2022-09-09T13:18:22;3.35;;;1.30;;
70866;SDS011;58487;53.474;49.470;2022-09-09T13:20:50;3.63;;;1.33;;
70866;SDS011;58487;53.474;49.470;2022-09-09T13:23:18;3.80;;;1.52;;
70866;SDS011;58487;53.474;49.470;2022-09-09T13:25:59;4.85;;;1.80;;
70866;SDS011;58487;53.474;49.470;2022-09-09T13:28:28;3.80;;;1.40;;
70866;SDS011;58487;53.474;49.470;2022-09-09T13:30:56;3.72;;;1.70;;
70866;SDS011;58487;53.474;49.470;2022-09-09T13:33:45;3.97;;;1.67;;
70866;SDS011;58487;53.474;49.470;2022-09-09T13:36:11;5.50;;;1.55;;
70866;SDS011;58487;53.474;49.470;2022-09-09T13:41:21;3.40;;;1.40;;
70866;SDS011;58487;53.474;49.470;2022-09-09T13:43:51;4.85;;;1.50;;
70866;SDS011;58487;53.474;49.470;2022-09-09T13:51:41;3.70;;;1.38;;
70866;SDS011;58487;53.474;49.470;2022-09-09T13:54:11;3.85;;;1.42;;
70866;SDS011;58487;53.474;49.470;2022-09-09T13:56:42;3.53;;;1.20;;
70866;SDS011;58487;53.474;49.470;2022-09-09T13:59:10;3.43;;;1.30;;
70866;SDS011;58487;53.474;49.470;2022-09-09T14:01:38;3.38;;;1.40;;
70866;SDS011;58487;53.474;49.470;2022-09-09T14:04:04;3.20;;;1.25;;
70866;SDS011;58487;53.474;49.470;2022-09-09T14:06:34;3.45;;;1.30;;
70866;SDS011;58487;53.474;49.470;2022-09-09T14:09:04;4.65;;;1.13;;
70866;SDS011;58487;53.474;49.470;2022-09-09T14:11:31;3.57;;;1.30;;
70866;SDS011;58487;53.474;49.470;2022-09-09T14:13:57;5.40;;;1.33;;
70866;SDS011;58487;53.474;49.470;2022-09-09T14:16:23;3.40;;;1.20;;
70866;SDS011;58487;53.474;49.470;2022-09-09T14:18:51;3.60;;;1.30;;
70866;SDS011;58487;53.474;49.470;2022-09-09T14:21:17;5.30;;;2.30;;
70866;SDS011;58487;53.474;49.470;2022-09-09T14:23:43;3.70;;;1.40;;
70866;SDS011;58487;53.474;49.470;2022-09-09T14:26:09;5.15;;;2.13;;
70866;SDS011;58487;53.474;49.470;2022-09-09T14:28:35;3.40;;;1.40;;
70866;SDS011;58487;53.474;49.470;2022-09-09T14:31:02;5.20;;;1.90;;
70866;SDS011;58487;53.474;49.470;2022-09-09T14:33:29;3.70;;;1.60;;
70866;SDS011;58487;53.474;49.470;2022-09-09T14:35:56;4.00;;;1.60;;
70866;SDS011;58487;53.474;49.470;2022-09-09T14:38:24;3.63;;;1.50;;
70866;SDS011;58487;53.474;49.470;2022-09-09T14:40:51;3.75;;;1.35;;
70866;SDS011;58487;53.474;49.470;2022-09-09T14:43:17;3.50;;;1.10;;
70866;SDS011;58487;53.474;49.470;2022-09-09T14:45:43;4.23;;;1.33;;
70866;SDS011;58487;53.474;49.470;2022-09-09T14:48:09;4.70;;;1.50;;
70866;SDS011;58487;53.474;49.470;2022-09-09T14:50:35;4.80;;;1.95;;
70866;SDS011;58487;53.474;49.470;2022-09-09T14:53:05;4.57;;;1.40;;
70866;SDS011;58487;53.474;49.470;2022-09-09T14:55:31;3.95;;;1.27;;
70866;SDS011;58487;53.474;49.470;2022-09-09T14:57:57;3.90;;;1.40;;
70866;SDS011;58487;53.474;49.470;2022-09-09T15:00:23;8.98;;;3.95;;
70866;SDS011;58487;53.474;49.470;2022-09-09T15:02:53;5.95;;;2.67;;
70866;SDS011;58487;53.474;49.470;2022-09-09T15:05:20;6.55;;;1.90;;
70866;SDS011;58487;53.474;49.470;2022-09-09T15:07:47;4.25;;;1.80;;
70866;SDS011;58487;53.474;49.470;2022-09-09T15:10:14;3.63;;;1.37;;
70866;SDS011;58487;53.474;49.470;2022-09-09T15:12:40;4.43;;;1.23;;
70866;SDS011;58487;53.474;49.470;2022-09-09T15:15:07;3.97;;;1.45;;
70866;SDS011;58487;53.474;49.470;2022-09-09T15:17:33;3.85;;;1.35;;
70866;SDS011;58487;53.474;49.470;2022-09-09T15:20:02;3.78;;;1.40;;
70866;SDS011;58487;53.474;49.470;2022-09-09T15:22:30;3.40;;;1.20;;
70866;SDS011;58487;53.474;49.470;2022-09-09T15:24:57;3.40;;;1.30;;
70866;SDS011;58487;53.474;49.470;2022-09-09T15:27:23;3.63;;;1.38;;
70866;SDS011;58487;53.474;49.470;2022-09-09T15:29:49;4.18;;;1.50;;
70866;SDS011;58487;53.474;49.470;2022-09-09T15:32:17;5.13;;;1.40;;
70866;SDS011;58487;53.474;49.470;2022-09-09T15:34:43;9.50;;;1.40;;
70866;SDS011;58487;53.474;49.470;2022-09-09T15:37:10;4.15;;;1.45;;
70866;SDS011;58487;53.474;49.470;2022-09-09T15:39:38;5.40;;;1.63;;
70866;SDS011;58487;53.474;49.470;2022-09-09T15:42:06;3.88;;;1.52;;
70866;SDS011;58487;53.474;49.470;2022-09-09T15:44:42;3.20;;;1.40;;
70866;SDS011;58487;53.474;49.470;2022-09-09T15:47:10;4.27;;;1.20;;
70866;SDS011;58487;53.474;49.470;2022-09-09T15:49:38;2.80;;;1.02;;
70866;SDS011;58487;53.474;49.470;2022-09-09T15:52:04;3.35;;;1.40;;
70866;SDS011;58487;53.474;49.470;2022-09-09T15:54:31;3.25;;;1.13;;
70866;SDS011;58487;53.474;49.470;2022-09-09T15:57:00;3.95;;;1.30;;
70866;SDS011;58487;53.474;49.470;2022-09-09T15:59:29;3.43;;;1.30;;
70866;SDS011;58487;53.474;49.470;2022-09-09T16:01:56;3.45;;;1.20;;
70866;SDS011;58487;53.474;49.470;2022-09-09T16:04:24;4.00;;;1.40;;
70866;SDS011;58487;53.474;49.470;2022-09-09T16:06:54;2.85;;;1.05;;
70866;SDS011;58487;53.474;49.470;2022-09-09T16:09:22;4.43;;;1.40;;
70866;SDS011;58487;53.474;49.470;2022-09-09T16:11:48;4.73;;;1.33;;
70866;SDS011;58487;53.474;49.470;2022-09-09T16:14:15;3.20;;;1.10;;
70866;SDS011;58487;53.474;49.470;2022-09-09T16:16:41;3.70;;;1.40;;
70866;SDS011;58487;53.474;49.470;2022-09-09T16:19:08;3.22;;;1.23;;
70866;SDS011;58487;53.474;49.470;2022-09-09T16:21:42;3.60;;;1.40;;
70866;SDS011;58487;53.474;49.470;2022-09-09T16:24:11;3.77;;;1.30;;
70866;SDS011;58487;53.474;49.470;2022-09-09T16:26:40;3.95;;;1.30;;
70866;SDS011;58487;53.474;49.470;2022-09-09T16:29:11;3.33;;;1.15;;
70866;SDS011;58487;53.474;49.470;2022-09-09T16:31:37;4.63;;;1.42;;
70866;SDS011;58487;53.474;49.470;2022-09-09T16:34:05;4.57;;;1.35;;
70866;SDS011;58487;53.474;49.470;2022-09-09T16:36:34;3.80;;;1.33;;
70866;SDS011;58487;53.474;49.470;2022-09-09T16:39:03;3.50;;;1.30;;
70866;SDS011;58487;53.474;49.470;2022-09-09T16:41:31;4.28;;;1.25;;
70866;SDS011;58487;53.474;49.470;2022-09-09T16:44:00;2.97;;;1.00;;
70866;SDS011;58487;53.474;49.470;2022-09-09T16:46:29;3.88;;;1.42;;